sensor_id;sensor_type;location;lat;lon;timestamp;temperature;humidity
4934;DHT22;2482;49.154;8.254;2024-02-23T00:02:21;8.40;99.90
4934;DHT22;2482;49.154;8.254;2024-02-23T00:04:48;8.30;99.90
4934;DHT22;2482;49.154;8.254;2024-02-23T00:07:15;8.30;99.90
4934;DHT22;2482;49.154;8.254;2024-02-23T00:09:42;8.40;99.90
4934;DHT22;2482;49.154;8.254;2024-02-23T00:12:09;8.30;99.90
4934;DHT22;2482;49.154;8.254;2024-02-23T00:14:36;8.40;99.90
4934;DHT22;2482;49.154;8.254;2024-02-23T00:17:03;8.20;99.90
4934;DHT22;2482;49.154;8.254;2024-02-23T00:19:31;8.20;99.90
4934;DHT22;2482;49.154;8.254;2024-02-23T00:21:58;8.30;99.90
4934;DHT22;2482;49.154;8.254;2024-02-23T00:24:26;8.20;99.90
4934;DHT22;2482;49.154;8.254;2024-02-23T00:26:54;8.20;99.90
4934;DHT22;2482;49.154;8.254;2024-02-23T00:29:21;8.20;99.90
4934;DHT22;2482;49.154;8.254;2024-02-23T00:31:49;8.20;99.90
4934;DHT22;2482;49.154;8.254;2024-02-23T00:34:16;8.20;99.90
4934;DHT22;2482;49.154;8.254;2024-02-23T00:36:44;8.20;99.90
4934;DHT22;2482;49.154;8.254;2024-02-23T00:39:13;8.10;99.90
4934;DHT22;2482;49.154;8.254;2024-02-23T00:41:40;8.00;99.90
4934;DHT22;2482;49.154;8.254;2024-02-23T00:44:07;8.00;99.90
4934;DHT22;2482;49.154;8.254;2024-02-23T00:46:34;7.90;99.90
4934;DHT22;2482;49.154;8.254;2024-02-23T00:49:01;8.00;99.90
4934;DHT22;2482;49.154;8.254;2024-02-23T00:51:29;7.80;99.90
4934;DHT22;2482;49.154;8.254;2024-02-23T00:53:56;7.80;99.90
4934;DHT22;2482;49.154;8.254;2024-02-23T00:56:23;7.80;99.90
4934;DHT22;2482;49.154;8.254;2024-02-23T00:59:01;7.80;99.90
4934;DHT22;2482;49.154;8.254;2024-02-23T01:01:28;7.70;99.90
4934;DHT22;2482;49.154;8.254;2024-02-23T01:03:55;7.70;99.90
4934;DHT22;2482;49.154;8.254;2024-02-23T01:06:23;7.70;99.90
4934;DHT22;2482;49.154;8.254;2024-02-23T01:08:51;7.50;99.90
4934;DHT22;2482;49.154;8.254;2024-02-23T01:11:18;7.60;99.90
4934;DHT22;2482;49.154;8.254;2024-02-23T01:13:46;7.60;99.90
4934;DHT22;2482;49.154;8.254;2024-02-23T01:16:13;7.50;99.90
4934;DHT22;2482;49.154;8.254;2024-02-23T01:18:40;7.50;99.90
4934;DHT22;2482;49.154;8.254;2024-02-23T01:21:07;7.50;99.90
4934;DHT22;2482;49.154;8.254;2024-02-23T01:23:34;7.50;99.90
4934;DHT22;2482;49.154;8.254;2024-02-23T01:26:01;7.50;99.90
4934;DHT22;2482;49.154;8.254;2024-02-23T01:28:29;7.50;99.90
4934;DHT22;2482;49.154;8.254;2024-02-23T01:30:56;7.50;99.90
4934;DHT22;2482;49.154;8.254;2024-02-23T01:33:23;7.50;99.90
4934;DHT22;2482;49.154;8.254;2024-02-23T01:35:50;7.60;99.90
4934;DHT22;2482;49.154;8.254;2024-02-23T01:38:17;7.60;99.90
4934;DHT22;2482;49.154;8.254;2024-02-23T01:40:47;7.60;99.90
4934;DHT22;2482;49.154;8.254;2024-02-23T01:43:15;7.60;99.90
4934;DHT22;2482;49.154;8.254;2024-02-23T01:45:42;7.60;99.90
4934;DHT22;2482;49.154;8.254;2024-02-23T01:48:09;7.60;99.90
4934;DHT22;2482;49.154;8.254;2024-02-23T01:50:36;7.50;99.90
4934;DHT22;2482;49.154;8.254;2024-02-23T01:53:04;7.50;99.90
4934;DHT22;2482;49.154;8.254;2024-02-23T01:55:31;7.50;99.90
4934;DHT22;2482;49.154;8.254;2024-02-23T01:58:04;7.60;99.90
4934;DHT22;2482;49.154;8.254;2024-02-23T02:00:35;7.60;99.90
4934;DHT22;2482;49.154;8.254;2024-02-23T02:03:03;7.60;99.90
4934;DHT22;2482;49.154;8.254;2024-02-23T02:05:38;7.60;99.90
4934;DHT22;2482;49.154;8.254;2024-02-23T02:08:06;7.60;99.90
4934;DHT22;2482;49.154;8.254;2024-02-23T02:10:33;7.50;99.90
4934;DHT22;2482;49.154;8.254;2024-02-23T02:13:04;7.60;99.90
4934;DHT22;2482;49.154;8.254;2024-02-23T02:15:32;7.60;99.90
4934;DHT22;2482;49.154;8.254;2024-02-23T02:17:59;7.60;99.90
4934;DHT22;2482;49.154;8.254;2024-02-23T02:20:27;7.60;99.90
4934;DHT22;2482;49.154;8.254;2024-02-23T02:22:55;7.50;99.90
4934;DHT22;2482;49.154;8.254;2024-02-23T02:25:22;7.50;99.90
4934;DHT22;2482;49.154;8.254;2024-02-23T02:27:49;7.50;99.90
4934;DHT22;2482;49.154;8.254;2024-02-23T02:30:17;7.50;99.90
4934;DHT22;2482;49.154;8.254;2024-02-23T02:32:44;7.50;99.90
4934;DHT22;2482;49.154;8.254;2024-02-23T02:35:11;7.40;99.90
4934;DHT22;2482;49.154;8.254;2024-02-23T02:37:39;7.50;99.90
4934;DHT22;2482;49.154;8.254;2024-02-23T02:40:07;7.40;99.90
4934;DHT22;2482;49.154;8.254;2024-02-23T02:42:34;7.40;99.90
4934;DHT22;2482;49.154;8.254;2024-02-23T02:45:01;7.40;99.90
4934;DHT22;2482;49.154;8.254;2024-02-23T02:47:30;7.30;99.90
4934;DHT22;2482;49.154;8.254;2024-02-23T02:49:57;7.30;99.90
4934;DHT22;2482;49.154;8.254;2024-02-23T02:52:24;7.30;99.90
4934;DHT22;2482;49.154;8.254;2024-02-23T02:54:51;7.30;99.90
4934;DHT22;2482;49.154;8.254;2024-02-23T02:57:18;7.30;99.90
4934;DHT22;2482;49.154;8.254;2024-02-23T02:59:45;7.40;99.90
4934;DHT22;2482;49.154;8.254;2024-02-23T03:02:14;7.30;99.90
4934;DHT22;2482;49.154;8.254;2024-02-23T03:04:51;7.30;99.90
4934;DHT22;2482;49.154;8.254;2024-02-23T03:07:18;7.30;99.90
4934;DHT22;2482;49.154;8.254;2024-02-23T03:09:45;7.20;99.90
4934;DHT22;2482;49.154;8.254;2024-02-23T03:12:12;7.20;99.90
4934;DHT22;2482;49.154;8.254;2024-02-23T03:14:39;7.20;99.90
4934;DHT22;2482;49.154;8.254;2024-02-23T03:17:08;7.20;99.90
4934;DHT22;2482;49.154;8.254;2024-02-23T03:19:38;7.20;99.90
4934;DHT22;2482;49.154;8.254;2024-02-23T03:22:05;7.30;99.90
4934;DHT22;2482;49.154;8.254;2024-02-23T03:24:33;7.30;99.90
4934;DHT22;2482;49.154;8.254;2024-02-23T03:27:00;7.20;99.90
4934;DHT22;2482;49.154;8.254;2024-02-23T03:29:28;7.20;99.90
4934;DHT22;2482;49.154;8.254;2024-02-23T03:31:56;7.10;99.90
4934;DHT22;2482;49.154;8.254;2024-02-23T03:34:24;7.10;99.90
4934;DHT22;2482;49.154;8.254;2024-02-23T03:36:51;7.00;99.90
4934;DHT22;2482;49.154;8.254;2024-02-23T03:39:18;7.00;99.90
4934;DHT22;2482;49.154;8.254;2024-02-23T03:41:45;7.00;99.90
4934;DHT22;2482;49.154;8.254;2024-02-23T03:44:12;7.00;99.90
4934;DHT22;2482;49.154;8.254;2024-02-23T03:46:39;7.00;99.90
4934;DHT22;2482;49.154;8.254;2024-02-23T03:49:06;7.00;99.90
4934;DHT22;2482;49.154;8.254;2024-02-23T03:51:34;6.90;99.90
4934;DHT22;2482;49.154;8.254;2024-02-23T03:54:03;6.80;99.90
4934;DHT22;2482;49.154;8.254;2024-02-23T03:56:30;6.80;99.90
4934;DHT22;2482;49.154;8.254;2024-02-23T03:59:04;6.80;99.90
4934;DHT22;2482;49.154;8.254;2024-02-23T04:01:31;6.70;99.90
4934;DHT22;2482;49.154;8.254;2024-02-23T04:03:58;6.70;99.90
4934;DHT22;2482;49.154;8.254;2024-02-23T04:06:25;6.60;99.90
4934;DHT22;2482;49.154;8.254;2024-02-23T04:08:52;6.70;99.90
4934;DHT22;2482;49.154;8.254;2024-02-23T04:11:19;6.70;99.90
4934;DHT22;2482;49.154;8.254;2024-02-23T04:13:48;6.60;99.90
4934;DHT22;2482;49.154;8.254;2024-02-23T04:16:21;6.60;99.90
4934;DHT22;2482;49.154;8.254;2024-02-23T04:18:50;6.60;99.90
4934;DHT22;2482;49.154;8.254;2024-02-23T04:21:18;6.50;99.90
4934;DHT22;2482;49.154;8.254;2024-02-23T04:23:45;6.60;99.90
4934;DHT22;2482;49.154;8.254;2024-02-23T04:26:13;6.50;99.90
4934;DHT22;2482;49.154;8.254;2024-02-23T04:28:41;6.50;99.90
4934;DHT22;2482;49.154;8.254;2024-02-23T04:31:08;6.50;99.90
4934;DHT22;2482;49.154;8.254;2024-02-23T04:33:36;6.60;99.90
4934;DHT22;2482;49.154;8.254;2024-02-23T04:36:04;6.60;99.90
4934;DHT22;2482;49.154;8.254;2024-02-23T04:38:32;6.70;99.90
4934;DHT22;2482;49.154;8.254;2024-02-23T04:41:03;6.70;99.90
4934;DHT22;2482;49.154;8.254;2024-02-23T04:43:34;6.60;99.90
4934;DHT22;2482;49.154;8.254;2024-02-23T04:46:01;6.70;99.90
4934;DHT22;2482;49.154;8.254;2024-02-23T04:48:28;6.70;99.90
4934;DHT22;2482;49.154;8.254;2024-02-23T04:50:57;6.60;99.90
4934;DHT22;2482;49.154;8.254;2024-02-23T04:53:26;6.70;99.90
4934;DHT22;2482;49.154;8.254;2024-02-23T04:55:53;6.70;99.90
4934;DHT22;2482;49.154;8.254;2024-02-23T04:58:20;6.80;99.90
4934;DHT22;2482;49.154;8.254;2024-02-23T05:00:49;6.60;99.90
4934;DHT22;2482;49.154;8.254;2024-02-23T05:03:16;6.50;99.90
4934;DHT22;2482;49.154;8.254;2024-02-23T05:05:43;6.60;99.90
4934;DHT22;2482;49.154;8.254;2024-02-23T05:08:10;6.60;99.90
4934;DHT22;2482;49.154;8.254;2024-02-23T05:10:38;6.60;99.90
4934;DHT22;2482;49.154;8.254;2024-02-23T05:13:05;6.50;99.90
4934;DHT22;2482;49.154;8.254;2024-02-23T05:15:32;6.50;99.90
4934;DHT22;2482;49.154;8.254;2024-02-23T05:17:59;6.50;99.90
4934;DHT22;2482;49.154;8.254;2024-02-23T05:20:26;6.40;99.90
4934;DHT22;2482;49.154;8.254;2024-02-23T05:22:53;6.40;99.90
4934;DHT22;2482;49.154;8.254;2024-02-23T05:25:20;6.50;99.90
4934;DHT22;2482;49.154;8.254;2024-02-23T05:27:47;6.50;99.90
4934;DHT22;2482;49.154;8.254;2024-02-23T05:30:14;6.40;99.90
4934;DHT22;2482;49.154;8.254;2024-02-23T05:32:41;6.30;99.90
4934;DHT22;2482;49.154;8.254;2024-02-23T05:35:09;6.40;99.90
4934;DHT22;2482;49.154;8.254;2024-02-23T05:37:36;6.30;99.90
4934;DHT22;2482;49.154;8.254;2024-02-23T05:40:06;6.20;99.90
4934;DHT22;2482;49.154;8.254;2024-02-23T05:42:37;6.30;99.90
4934;DHT22;2482;49.154;8.254;2024-02-23T05:45:07;6.40;99.90
4934;DHT22;2482;49.154;8.254;2024-02-23T05:47:38;6.20;99.90
4934;DHT22;2482;49.154;8.254;2024-02-23T05:50:09;6.20;99.90
4934;DHT22;2482;49.154;8.254;2024-02-23T05:52:36;6.30;99.90
4934;DHT22;2482;49.154;8.254;2024-02-23T05:55:04;6.10;99.90
4934;DHT22;2482;49.154;8.254;2024-02-23T05:57:31;6.10;99.90
4934;DHT22;2482;49.154;8.254;2024-02-23T05:59:58;6.00;99.90
4934;DHT22;2482;49.154;8.254;2024-02-23T06:02:25;6.10;99.90
4934;DHT22;2482;49.154;8.254;2024-02-23T06:04:52;5.90;99.90
4934;DHT22;2482;49.154;8.254;2024-02-23T06:07:19;6.10;99.90
4934;DHT22;2482;49.154;8.254;2024-02-23T06:09:53;6.00;99.90
4934;DHT22;2482;49.154;8.254;2024-02-23T06:12:20;6.00;99.90
4934;DHT22;2482;49.154;8.254;2024-02-23T06:14:48;5.80;99.90
4934;DHT22;2482;49.154;8.254;2024-02-23T06:17:17;5.80;99.90
4934;DHT22;2482;49.154;8.254;2024-02-23T06:19:44;5.90;99.90
4934;DHT22;2482;49.154;8.254;2024-02-23T06:22:12;5.90;99.90
4934;DHT22;2482;49.154;8.254;2024-02-23T06:24:40;5.90;99.90
4934;DHT22;2482;49.154;8.254;2024-02-23T06:27:07;5.70;99.90
4934;DHT22;2482;49.154;8.254;2024-02-23T06:29:35;5.90;99.90
4934;DHT22;2482;49.154;8.254;2024-02-23T06:32:03;5.90;99.90
4934;DHT22;2482;49.154;8.254;2024-02-23T06:34:30;5.90;99.90
4934;DHT22;2482;49.154;8.254;2024-02-23T06:36:58;5.90;99.90
4934;DHT22;2482;49.154;8.254;2024-02-23T06:39:25;5.90;99.90
4934;DHT22;2482;49.154;8.254;2024-02-23T06:41:53;6.00;99.90
4934;DHT22;2482;49.154;8.254;2024-02-23T06:44:20;6.00;99.90
4934;DHT22;2482;49.154;8.254;2024-02-23T06:46:47;6.10;99.90
4934;DHT22;2482;49.154;8.254;2024-02-23T06:49:14;6.10;99.90
4934;DHT22;2482;49.154;8.254;2024-02-23T06:51:41;6.00;99.90
4934;DHT22;2482;49.154;8.254;2024-02-23T06:54:08;6.10;99.90
4934;DHT22;2482;49.154;8.254;2024-02-23T06:56:35;6.30;99.90
4934;DHT22;2482;49.154;8.254;2024-02-23T06:59:03;6.20;99.90
4934;DHT22;2482;49.154;8.254;2024-02-23T07:01:30;6.10;99.90
4934;DHT22;2482;49.154;8.254;2024-02-23T07:03:58;6.10;99.90
4934;DHT22;2482;49.154;8.254;2024-02-23T07:06:26;6.20;99.90
4934;DHT22;2482;49.154;8.254;2024-02-23T07:08:55;6.20;99.90
4934;DHT22;2482;49.154;8.254;2024-02-23T07:11:22;6.20;99.90
4934;DHT22;2482;49.154;8.254;2024-02-23T07:13:49;6.20;99.90
4934;DHT22;2482;49.154;8.254;2024-02-23T07:16:16;6.30;99.90
4934;DHT22;2482;49.154;8.254;2024-02-23T07:18:43;6.30;99.90
4934;DHT22;2482;49.154;8.254;2024-02-23T07:21:10;6.30;99.90
4934;DHT22;2482;49.154;8.254;2024-02-23T07:23:37;6.30;99.90
4934;DHT22;2482;49.154;8.254;2024-02-23T07:26:05;6.50;99.90
4934;DHT22;2482;49.154;8.254;2024-02-23T07:28:32;6.40;99.90
4934;DHT22;2482;49.154;8.254;2024-02-23T07:30:59;6.40;99.90
4934;DHT22;2482;49.154;8.254;2024-02-23T07:33:28;6.50;99.90
4934;DHT22;2482;49.154;8.254;2024-02-23T07:35:56;6.60;99.90
4934;DHT22;2482;49.154;8.254;2024-02-23T07:38:23;6.60;99.90
4934;DHT22;2482;49.154;8.254;2024-02-23T07:40:50;6.80;99.90
4934;DHT22;2482;49.154;8.254;2024-02-23T07:43:17;7.00;99.90
4934;DHT22;2482;49.154;8.254;2024-02-23T07:45:44;7.20;99.90
4934;DHT22;2482;49.154;8.254;2024-02-23T07:48:11;7.30;99.90
4934;DHT22;2482;49.154;8.254;2024-02-23T07:50:38;7.40;99.90
4934;DHT22;2482;49.154;8.254;2024-02-23T07:53:05;7.40;99.90
4934;DHT22;2482;49.154;8.254;2024-02-23T07:55:32;7.20;99.90
4934;DHT22;2482;49.154;8.254;2024-02-23T07:58:00;7.30;99.90
4934;DHT22;2482;49.154;8.254;2024-02-23T08:00:28;7.30;99.90
4934;DHT22;2482;49.154;8.254;2024-02-23T08:02:56;7.30;99.90
4934;DHT22;2482;49.154;8.254;2024-02-23T08:05:26;7.20;99.90
4934;DHT22;2482;49.154;8.254;2024-02-23T08:07:55;7.30;99.90
4934;DHT22;2482;49.154;8.254;2024-02-23T08:10:23;7.40;99.90
4934;DHT22;2482;49.154;8.254;2024-02-23T08:12:52;7.30;99.90
4934;DHT22;2482;49.154;8.254;2024-02-23T08:15:21;7.50;99.90
4934;DHT22;2482;49.154;8.254;2024-02-23T08:17:48;7.50;99.90
4934;DHT22;2482;49.154;8.254;2024-02-23T08:20:16;7.40;99.90
4934;DHT22;2482;49.154;8.254;2024-02-23T08:22:43;7.30;99.90
4934;DHT22;2482;49.154;8.254;2024-02-23T08:25:10;7.30;99.90
4934;DHT22;2482;49.154;8.254;2024-02-23T08:27:41;7.30;99.90
4934;DHT22;2482;49.154;8.254;2024-02-23T08:30:09;7.40;99.90
4934;DHT22;2482;49.154;8.254;2024-02-23T08:32:40;7.40;99.90
4934;DHT22;2482;49.154;8.254;2024-02-23T08:35:07;7.50;99.90
4934;DHT22;2482;49.154;8.254;2024-02-23T08:37:36;7.60;99.90
4934;DHT22;2482;49.154;8.254;2024-02-23T08:40:05;7.60;99.90
4934;DHT22;2482;49.154;8.254;2024-02-23T08:42:35;7.70;99.90
4934;DHT22;2482;49.154;8.254;2024-02-23T08:45:06;7.80;99.90
4934;DHT22;2482;49.154;8.254;2024-02-23T08:47:33;7.80;99.90
4934;DHT22;2482;49.154;8.254;2024-02-23T08:50:02;7.90;99.90
4934;DHT22;2482;49.154;8.254;2024-02-23T08:52:31;7.90;99.90
4934;DHT22;2482;49.154;8.254;2024-02-23T08:54:58;8.00;99.90
4934;DHT22;2482;49.154;8.254;2024-02-23T08:57:29;8.20;99.90
4934;DHT22;2482;49.154;8.254;2024-02-23T08:59:56;8.20;99.90
4934;DHT22;2482;49.154;8.254;2024-02-23T09:02:25;8.10;99.90
4934;DHT22;2482;49.154;8.254;2024-02-23T09:04:53;8.10;99.90
4934;DHT22;2482;49.154;8.254;2024-02-23T09:07:20;8.10;99.90
4934;DHT22;2482;49.154;8.254;2024-02-23T09:09:48;8.10;99.90
4934;DHT22;2482;49.154;8.254;2024-02-23T09:12:16;8.00;99.90
4934;DHT22;2482;49.154;8.254;2024-02-23T09:14:45;8.20;99.90
4934;DHT22;2482;49.154;8.254;2024-02-23T09:17:12;8.30;99.90
4934;DHT22;2482;49.154;8.254;2024-02-23T09:19:40;8.60;99.90
4934;DHT22;2482;49.154;8.254;2024-02-23T09:22:07;8.90;99.90
4934;DHT22;2482;49.154;8.254;2024-02-23T09:24:34;8.90;99.90
4934;DHT22;2482;49.154;8.254;2024-02-23T09:27:02;9.00;99.90
4934;DHT22;2482;49.154;8.254;2024-02-23T09:29:30;9.00;99.90
4934;DHT22;2482;49.154;8.254;2024-02-23T09:31:59;9.00;99.90
4934;DHT22;2482;49.154;8.254;2024-02-23T09:34:27;8.70;99.90
4934;DHT22;2482;49.154;8.254;2024-02-23T09:36:55;8.80;99.90
4934;DHT22;2482;49.154;8.254;2024-02-23T09:39:22;9.00;99.90
4934;DHT22;2482;49.154;8.254;2024-02-23T09:41:54;9.40;99.90
4934;DHT22;2482;49.154;8.254;2024-02-23T09:44:22;9.10;99.90
4934;DHT22;2482;49.154;8.254;2024-02-23T09:46:49;9.40;99.90
4934;DHT22;2482;49.154;8.254;2024-02-23T09:49:16;9.00;99.90
4934;DHT22;2482;49.154;8.254;2024-02-23T09:51:43;8.90;99.90
4934;DHT22;2482;49.154;8.254;2024-02-23T09:54:10;8.70;99.90
4934;DHT22;2482;49.154;8.254;2024-02-23T09:56:39;8.70;99.90
4934;DHT22;2482;49.154;8.254;2024-02-23T09:59:06;8.90;99.90
4934;DHT22;2482;49.154;8.254;2024-02-23T10:01:33;8.90;99.90
4934;DHT22;2482;49.154;8.254;2024-02-23T10:04:01;8.90;99.90
4934;DHT22;2482;49.154;8.254;2024-02-23T10:06:31;9.10;99.90
4934;DHT22;2482;49.154;8.254;2024-02-23T10:08:58;9.20;99.90
4934;DHT22;2482;49.154;8.254;2024-02-23T10:11:26;9.30;99.90
4934;DHT22;2482;49.154;8.254;2024-02-23T10:13:53;9.40;99.90
4934;DHT22;2482;49.154;8.254;2024-02-23T10:16:21;9.60;99.90
4934;DHT22;2482;49.154;8.254;2024-02-23T10:18:49;9.70;99.90
4934;DHT22;2482;49.154;8.254;2024-02-23T10:21:17;9.70;99.90
4934;DHT22;2482;49.154;8.254;2024-02-23T10:23:44;9.80;99.90
4934;DHT22;2482;49.154;8.254;2024-02-23T10:26:12;10.00;99.90
4934;DHT22;2482;49.154;8.254;2024-02-23T10:28:40;10.10;99.90
4934;DHT22;2482;49.154;8.254;2024-02-23T10:31:07;10.20;99.90
4934;DHT22;2482;49.154;8.254;2024-02-23T10:33:39;10.40;99.90
4934;DHT22;2482;49.154;8.254;2024-02-23T10:36:07;10.40;99.90
4934;DHT22;2482;49.154;8.254;2024-02-23T10:38:38;10.50;99.90
4934;DHT22;2482;49.154;8.254;2024-02-23T10:41:12;10.60;99.90
4934;DHT22;2482;49.154;8.254;2024-02-23T10:43:45;10.80;99.90
4934;DHT22;2482;49.154;8.254;2024-02-23T10:46:16;10.60;99.90
4934;DHT22;2482;49.154;8.254;2024-02-23T10:48:45;10.50;99.90
4934;DHT22;2482;49.154;8.254;2024-02-23T10:51:14;10.30;99.90
4934;DHT22;2482;49.154;8.254;2024-02-23T10:53:46;9.90;99.90
4934;DHT22;2482;49.154;8.254;2024-02-23T10:56:15;10.30;99.90
4934;DHT22;2482;49.154;8.254;2024-02-23T10:58:43;10.00;99.90
4934;DHT22;2482;49.154;8.254;2024-02-23T11:01:12;9.70;99.90
4934;DHT22;2482;49.154;8.254;2024-02-23T11:03:42;9.80;99.90
4934;DHT22;2482;49.154;8.254;2024-02-23T11:06:15;10.00;99.90
4934;DHT22;2482;49.154;8.254;2024-02-23T11:08:48;10.20;99.90
4934;DHT22;2482;49.154;8.254;2024-02-23T11:11:18;10.30;99.90
4934;DHT22;2482;49.154;8.254;2024-02-23T11:13:45;10.60;99.90
4934;DHT22;2482;49.154;8.254;2024-02-23T11:16:22;10.30;99.90
4934;DHT22;2482;49.154;8.254;2024-02-23T11:19:06;10.20;99.90
4934;DHT22;2482;49.154;8.254;2024-02-23T11:21:38;10.10;99.90
4934;DHT22;2482;49.154;8.254;2024-02-23T11:24:06;9.80;99.90
4934;DHT22;2482;49.154;8.254;2024-02-23T11:26:37;10.00;99.90
4934;DHT22;2482;49.154;8.254;2024-02-23T11:29:12;10.10;99.90
4934;DHT22;2482;49.154;8.254;2024-02-23T11:31:46;10.30;99.90
4934;DHT22;2482;49.154;8.254;2024-02-23T11:34:13;10.20;99.90
4934;DHT22;2482;49.154;8.254;2024-02-23T11:36:51;10.20;99.90
4934;DHT22;2482;49.154;8.254;2024-02-23T11:39:20;10.20;99.90
4934;DHT22;2482;49.154;8.254;2024-02-23T11:41:48;10.30;99.90
4934;DHT22;2482;49.154;8.254;2024-02-23T11:44:19;10.50;99.90
4934;DHT22;2482;49.154;8.254;2024-02-23T11:46:47;10.50;99.90
4934;DHT22;2482;49.154;8.254;2024-02-23T11:49:15;10.60;99.90
4934;DHT22;2482;49.154;8.254;2024-02-23T11:51:45;10.50;99.90
4934;DHT22;2482;49.154;8.254;2024-02-23T11:54:12;10.40;99.90
4934;DHT22;2482;49.154;8.254;2024-02-23T11:56:40;10.40;99.90
4934;DHT22;2482;49.154;8.254;2024-02-23T11:59:08;10.20;99.90
4934;DHT22;2482;49.154;8.254;2024-02-23T12:01:36;10.20;99.90
4934;DHT22;2482;49.154;8.254;2024-02-23T12:04:03;10.20;99.90
4934;DHT22;2482;49.154;8.254;2024-02-23T12:06:30;10.30;99.90
4934;DHT22;2482;49.154;8.254;2024-02-23T12:09:00;10.30;99.90
4934;DHT22;2482;49.154;8.254;2024-02-23T12:11:29;10.30;99.90
4934;DHT22;2482;49.154;8.254;2024-02-23T12:13:58;10.30;99.90
4934;DHT22;2482;49.154;8.254;2024-02-23T12:16:28;10.50;99.90
4934;DHT22;2482;49.154;8.254;2024-02-23T12:18:55;10.50;99.90
4934;DHT22;2482;49.154;8.254;2024-02-23T12:21:23;10.20;99.90
4934;DHT22;2482;49.154;8.254;2024-02-23T12:23:51;10.20;99.90
4934;DHT22;2482;49.154;8.254;2024-02-23T12:26:18;10.30;99.90
4934;DHT22;2482;49.154;8.254;2024-02-23T12:28:46;10.40;99.90
4934;DHT22;2482;49.154;8.254;2024-02-23T12:31:13;10.60;99.90
4934;DHT22;2482;49.154;8.254;2024-02-23T12:33:41;10.60;99.90
4934;DHT22;2482;49.154;8.254;2024-02-23T12:36:10;10.50;99.90
4934;DHT22;2482;49.154;8.254;2024-02-23T12:38:39;10.70;99.90
4934;DHT22;2482;49.154;8.254;2024-02-23T12:41:06;10.80;99.90
4934;DHT22;2482;49.154;8.254;2024-02-23T12:43:39;10.90;99.90
4934;DHT22;2482;49.154;8.254;2024-02-23T12:46:09;11.20;99.90
4934;DHT22;2482;49.154;8.254;2024-02-23T12:48:36;11.10;99.90
4934;DHT22;2482;49.154;8.254;2024-02-23T12:51:04;11.40;99.90
4934;DHT22;2482;49.154;8.254;2024-02-23T12:56:05;11.40;99.90
4934;DHT22;2482;49.154;8.254;2024-02-23T12:58:42;11.30;99.90
4934;DHT22;2482;49.154;8.254;2024-02-23T13:01:11;11.10;99.90
4934;DHT22;2482;49.154;8.254;2024-02-23T13:03:39;10.90;99.90
4934;DHT22;2482;49.154;8.254;2024-02-23T13:06:09;11.00;99.90
4934;DHT22;2482;49.154;8.254;2024-02-23T13:08:36;11.20;99.90
4934;DHT22;2482;49.154;8.254;2024-02-23T13:11:06;11.30;99.90
4934;DHT22;2482;49.154;8.254;2024-02-23T13:13:34;11.30;99.90
4934;DHT22;2482;49.154;8.254;2024-02-23T13:16:02;11.40;99.90
4934;DHT22;2482;49.154;8.254;2024-02-23T13:18:29;11.40;99.90
4934;DHT22;2482;49.154;8.254;2024-02-23T13:20:57;11.70;99.90
4934;DHT22;2482;49.154;8.254;2024-02-23T13:23:24;11.60;99.90
4934;DHT22;2482;49.154;8.254;2024-02-23T13:25:51;11.10;99.90
4934;DHT22;2482;49.154;8.254;2024-02-23T13:28:18;10.80;99.90
4934;DHT22;2482;49.154;8.254;2024-02-23T13:30:45;10.60;99.90
4934;DHT22;2482;49.154;8.254;2024-02-23T13:33:12;10.70;99.90
4934;DHT22;2482;49.154;8.254;2024-02-23T13:35:39;10.80;99.90
4934;DHT22;2482;49.154;8.254;2024-02-23T13:38:07;10.80;99.90
4934;DHT22;2482;49.154;8.254;2024-02-23T13:40:35;10.80;99.90
4934;DHT22;2482;49.154;8.254;2024-02-23T13:43:02;11.10;99.90
4934;DHT22;2482;49.154;8.254;2024-02-23T13:45:30;11.00;99.90
4934;DHT22;2482;49.154;8.254;2024-02-23T13:48:02;11.30;99.90
4934;DHT22;2482;49.154;8.254;2024-02-23T13:50:32;11.40;99.90
4934;DHT22;2482;49.154;8.254;2024-02-23T13:53:01;11.50;99.90
4934;DHT22;2482;49.154;8.254;2024-02-23T13:55:28;11.70;99.90
4934;DHT22;2482;49.154;8.254;2024-02-23T13:57:55;11.80;99.90
4934;DHT22;2482;49.154;8.254;2024-02-23T14:00:22;11.70;99.90
4934;DHT22;2482;49.154;8.254;2024-02-23T14:02:49;11.50;99.90
4934;DHT22;2482;49.154;8.254;2024-02-23T14:05:17;11.50;99.90
4934;DHT22;2482;49.154;8.254;2024-02-23T14:07:45;11.40;99.90
4934;DHT22;2482;49.154;8.254;2024-02-23T14:10:12;11.40;99.90
4934;DHT22;2482;49.154;8.254;2024-02-23T14:12:41;11.20;99.90
4934;DHT22;2482;49.154;8.254;2024-02-23T14:15:09;11.20;99.90
4934;DHT22;2482;49.154;8.254;2024-02-23T14:17:40;11.30;99.90
4934;DHT22;2482;49.154;8.254;2024-02-23T14:20:08;11.10;99.90
4934;DHT22;2482;49.154;8.254;2024-02-23T14:22:36;11.10;99.90
4934;DHT22;2482;49.154;8.254;2024-02-23T14:25:05;11.10;99.90
4934;DHT22;2482;49.154;8.254;2024-02-23T14:27:32;11.10;99.90
4934;DHT22;2482;49.154;8.254;2024-02-23T14:29:59;11.00;99.90
4934;DHT22;2482;49.154;8.254;2024-02-23T14:32:26;11.20;99.90
4934;DHT22;2482;49.154;8.254;2024-02-23T14:34:53;11.40;99.90
4934;DHT22;2482;49.154;8.254;2024-02-23T14:37:21;11.50;99.90
4934;DHT22;2482;49.154;8.254;2024-02-23T14:39:48;11.70;99.90
4934;DHT22;2482;49.154;8.254;2024-02-23T14:42:16;11.60;99.90
4934;DHT22;2482;49.154;8.254;2024-02-23T14:44:43;11.50;99.90
4934;DHT22;2482;49.154;8.254;2024-02-23T14:47:10;11.40;99.90
4934;DHT22;2482;49.154;8.254;2024-02-23T14:49:37;11.30;99.90
4934;DHT22;2482;49.154;8.254;2024-02-23T14:52:04;11.30;99.90
4934;DHT22;2482;49.154;8.254;2024-02-23T14:54:33;11.30;99.90
4934;DHT22;2482;49.154;8.254;2024-02-23T14:57:01;11.50;99.90
4934;DHT22;2482;49.154;8.254;2024-02-23T14:59:28;11.50;99.90
4934;DHT22;2482;49.154;8.254;2024-02-23T15:01:55;11.50;99.90
4934;DHT22;2482;49.154;8.254;2024-02-23T15:04:23;11.50;99.90
4934;DHT22;2482;49.154;8.254;2024-02-23T15:06:50;11.50;99.90
4934;DHT22;2482;49.154;8.254;2024-02-23T15:09:17;11.70;99.90
4934;DHT22;2482;49.154;8.254;2024-02-23T15:11:44;11.70;99.90
4934;DHT22;2482;49.154;8.254;2024-02-23T15:14:12;11.80;99.90
4934;DHT22;2482;49.154;8.254;2024-02-23T15:16:42;11.80;99.90
4934;DHT22;2482;49.154;8.254;2024-02-23T15:19:09;11.70;99.90
4934;DHT22;2482;49.154;8.254;2024-02-23T15:21:37;11.50;99.90
4934;DHT22;2482;49.154;8.254;2024-02-23T15:24:07;11.30;99.90
4934;DHT22;2482;49.154;8.254;2024-02-23T15:26:34;11.30;99.90
4934;DHT22;2482;49.154;8.254;2024-02-23T15:29:02;11.30;99.90
4934;DHT22;2482;49.154;8.254;2024-02-23T15:31:33;11.20;99.90
4934;DHT22;2482;49.154;8.254;2024-02-23T15:34:03;11.10;99.90
4934;DHT22;2482;49.154;8.254;2024-02-23T15:36:30;11.30;99.90
4934;DHT22;2482;49.154;8.254;2024-02-23T15:38:59;11.30;99.90
4934;DHT22;2482;49.154;8.254;2024-02-23T15:41:34;11.20;99.90
4934;DHT22;2482;49.154;8.254;2024-02-23T15:44:02;11.10;99.90
4934;DHT22;2482;49.154;8.254;2024-02-23T15:46:31;10.80;99.90
4934;DHT22;2482;49.154;8.254;2024-02-23T15:48:58;10.70;99.90
4934;DHT22;2482;49.154;8.254;2024-02-23T15:51:26;10.80;99.90
4934;DHT22;2482;49.154;8.254;2024-02-23T15:54:13;11.00;99.90
4934;DHT22;2482;49.154;8.254;2024-02-23T15:56:40;10.90;99.90
4934;DHT22;2482;49.154;8.254;2024-02-23T15:59:07;10.90;99.90
4934;DHT22;2482;49.154;8.254;2024-02-23T16:01:36;10.90;99.90
4934;DHT22;2482;49.154;8.254;2024-02-23T16:04:04;11.10;99.90
4934;DHT22;2482;49.154;8.254;2024-02-23T16:06:31;10.90;99.90
4934;DHT22;2482;49.154;8.254;2024-02-23T16:09:02;10.60;99.90
4934;DHT22;2482;49.154;8.254;2024-02-23T16:11:34;10.50;99.90
4934;DHT22;2482;49.154;8.254;2024-02-23T16:14:02;10.30;99.90
4934;DHT22;2482;49.154;8.254;2024-02-23T16:16:30;10.40;99.90
4934;DHT22;2482;49.154;8.254;2024-02-23T16:18:58;10.20;99.90
4934;DHT22;2482;49.154;8.254;2024-02-23T16:21:25;10.40;99.90